createdAt,value
2023-12-02T00:00:46.598Z,35.92
2023-12-02T00:03:14.530Z,35.83
2023-12-02T00:05:42.585Z,35.05
2023-12-02T00:08:10.311Z,34.60
2023-12-02T00:10:38.066Z,36.08
2023-12-02T00:13:05.783Z,36.10
2023-12-02T00:15:33.565Z,33.38
2023-12-02T00:18:01.410Z,35.17
2023-12-02T00:20:29.868Z,38.58
2023-12-02T00:22:57.618Z,41.13
2023-12-02T00:25:25.505Z,38.80
2023-12-02T00:27:53.374Z,39.08
2023-12-02T00:30:21.279Z,37.25
2023-12-02T00:32:49.116Z,35.05
2023-12-02T00:35:16.878Z,37.47
2023-12-02T00:37:44.631Z,32.30
2023-12-02T00:40:12.607Z,34.33
2023-12-02T00:42:40.400Z,33.78
2023-12-02T00:45:08.787Z,32.50
2023-12-02T00:47:36.608Z,32.70
2023-12-02T00:50:04.727Z,32.85
2023-12-02T00:52:32.486Z,35.28
2023-12-02T00:55:00.400Z,33.58
2023-12-02T00:57:28.762Z,39.97
2023-12-02T00:59:56.644Z,40.55
2023-12-02T01:02:24.671Z,42.08
2023-12-02T01:04:52.576Z,41.13
2023-12-02T01:07:20.293Z,45.58
2023-12-02T01:09:48.033Z,43.42
2023-12-02T01:12:15.781Z,41.22
2023-12-02T01:14:43.505Z,43.38
2023-12-02T01:17:11.474Z,44.28
2023-12-02T01:19:39.225Z,45.22
2023-12-02T01:22:07.100Z,46.20
2023-12-02T01:24:34.819Z,43.90
2023-12-02T01:27:02.716Z,43.88
2023-12-02T01:29:30.492Z,43.00
2023-12-02T01:31:58.389Z,42.17
2023-12-02T01:34:26.488Z,45.50
2023-12-02T01:36:54.205Z,45.08
2023-12-02T01:39:22.057Z,47.28
2023-12-02T01:41:49.831Z,42.25
2023-12-02T01:44:17.598Z,46.88
2023-12-02T01:46:45.461Z,44.55
2023-12-02T01:49:13.645Z,43.67
2023-12-02T01:51:41.882Z,41.25
2023-12-02T01:54:09.732Z,41.17
2023-12-02T01:56:37.650Z,42.53
2023-12-02T01:59:05.753Z,44.33
2023-12-02T02:01:33.429Z,41.45
2023-12-02T02:04:01.334Z,39.85
2023-12-02T02:06:29.562Z,36.88
2023-12-02T02:08:57.398Z,40.70
2023-12-02T02:11:25.261Z,42.97
2023-12-02T02:13:53.045Z,45.17
2023-12-02T02:16:20.756Z,40.70
2023-12-02T02:18:48.568Z,40.75
2023-12-02T02:21:21.623Z,42.90
2023-12-02T02:23:49.411Z,40.60
2023-12-02T02:26:17.170Z,42.80
2023-12-02T02:28:44.987Z,40.78
2023-12-02T02:31:12.799Z,39.05
2023-12-02T02:33:40.549Z,33.97
2023-12-02T02:36:09.376Z,35.67
2023-12-02T02:38:37.211Z,35.83
2023-12-02T02:41:05.762Z,33.03
2023-12-02T02:43:33.448Z,39.97
2023-12-02T02:46:01.203Z,35.28
2023-12-02T02:48:29.458Z,35.85
2023-12-02T02:50:57.290Z,36.88
2023-12-02T02:53:25.006Z,35.25
2023-12-02T02:55:52.741Z,36.08
2023-12-02T02:58:20.482Z,35.75
2023-12-02T03:00:48.250Z,36.15
2023-12-02T03:03:16.036Z,35.30
2023-12-02T03:05:43.822Z,34.88
2023-12-02T03:08:11.586Z,37.33
2023-12-02T03:10:40.059Z,34.35
2023-12-02T03:13:08.058Z,36.67
2023-12-02T03:15:35.777Z,35.47
2023-12-02T03:18:03.832Z,35.60
2023-12-02T03:20:31.735Z,33.97
2023-12-02T03:22:59.523Z,35.38
2023-12-02T03:25:27.340Z,35.25
2023-12-02T03:27:55.209Z,34.97
2023-12-02T03:30:23.626Z,36.75
2023-12-02T03:32:51.463Z,37.38
2023-12-02T03:35:19.366Z,35.53
2023-12-02T03:37:47.230Z,36.90
2023-12-02T03:40:14.975Z,34.75
2023-12-02T03:42:42.824Z,38.10
2023-12-02T03:45:11.442Z,35.15
2023-12-02T03:47:39.322Z,36.88
2023-12-02T03:50:07.503Z,33.25
2023-12-02T03:52:35.548Z,34.70
2023-12-02T03:55:03.601Z,34.58
2023-12-02T03:57:31.529Z,33.80
2023-12-02T03:59:59.604Z,32.92
2023-12-02T04:02:27.683Z,36.92
2023-12-02T04:04:55.498Z,32.75
2023-12-02T04:07:23.419Z,33.80
2023-12-02T04:09:51.265Z,32.45
2023-12-02T04:12:19.681Z,33.47
2023-12-02T04:14:47.439Z,32.58
2023-12-02T04:17:15.241Z,32.53
2023-12-02T04:19:43.532Z,33.17
2023-12-02T04:22:11.370Z,32.40
2023-12-02T04:24:39.388Z,33.30
2023-12-02T04:27:08.661Z,33.30
2023-12-02T04:29:41.981Z,33.10
2023-12-02T04:32:10.363Z,32.42
2023-12-02T04:34:38.313Z,33.35
2023-12-02T04:37:08.794Z,32.55
2023-12-02T04:39:36.626Z,33.63
2023-12-02T04:42:04.805Z,32.75
2023-12-02T04:44:32.681Z,34.88
2023-12-02T04:47:00.478Z,35.58
2023-12-02T04:49:28.325Z,34.83
2023-12-02T04:51:56.120Z,33.50
2023-12-02T04:54:23.941Z,33.90
2023-12-02T04:56:51.672Z,33.67
2023-12-02T04:59:19.477Z,33.20
2023-12-02T05:01:47.413Z,33.42
2023-12-02T05:04:15.366Z,35.08
2023-12-02T05:06:43.415Z,35.78
2023-12-02T05:09:11.347Z,34.63
2023-12-02T05:11:41.931Z,37.15
2023-12-02T05:14:09.668Z,36.63
2023-12-02T05:16:37.354Z,36.17
2023-12-02T05:19:05.155Z,37.22
2023-12-02T05:21:32.889Z,34.40
2023-12-02T05:24:01.503Z,35.05
2023-12-02T05:26:30.168Z,38.42
2023-12-02T05:28:57.930Z,36.40
2023-12-02T05:31:25.785Z,38.03
2023-12-02T05:33:53.583Z,33.20
2023-12-02T05:36:21.596Z,36.00
2023-12-02T05:38:49.461Z,36.05
2023-12-02T05:41:17.312Z,37.22
2023-12-02T05:43:45.095Z,32.92
2023-12-02T05:46:19.323Z,37.17
2023-12-02T05:51:15.253Z,36.95
2023-12-02T05:53:43.024Z,36.67
2023-12-02T05:56:11.042Z,35.10
2023-12-02T05:58:38.968Z,40.75
2023-12-02T06:01:07.057Z,37.08
2023-12-02T06:03:34.836Z,40.20
2023-12-02T06:06:02.735Z,35.70
2023-12-02T06:08:30.581Z,38.53
2023-12-02T06:10:58.361Z,34.88
2023-12-02T06:13:26.056Z,38.83
2023-12-02T06:15:53.810Z,35.38
2023-12-02T06:18:21.574Z,36.22
2023-12-02T06:20:49.338Z,36.10
2023-12-02T06:23:17.033Z,36.47
2023-12-02T06:25:45.153Z,38.47
2023-12-02T06:28:12.909Z,39.85
2023-12-02T06:30:41.038Z,38.40
2023-12-02T06:33:08.932Z,42.83
2023-12-02T06:35:36.685Z,39.42
2023-12-02T06:38:04.411Z,40.30
2023-12-02T06:40:32.106Z,41.10
2023-12-02T06:42:59.834Z,37.15
2023-12-02T06:45:27.660Z,39.13
2023-12-02T06:47:55.522Z,36.55
2023-12-02T06:50:23.580Z,37.47
2023-12-02T06:52:52.271Z,39.53
2023-12-02T06:57:50.573Z,38.42
2023-12-02T07:00:20.314Z,37.17
2023-12-02T07:02:48.122Z,40.10
2023-12-02T07:05:15.895Z,37.90
2023-12-02T07:07:43.721Z,39.13
2023-12-02T07:10:11.427Z,39.80
2023-12-02T07:12:39.325Z,37.17
2023-12-02T07:15:09.178Z,36.45
2023-12-02T07:17:37.127Z,39.33
2023-12-02T07:20:05.312Z,39.78
2023-12-02T07:22:33.021Z,36.30
2023-12-02T07:25:00.762Z,38.00
2023-12-02T07:27:30.176Z,35.50
2023-12-02T07:32:29.036Z,39.63
2023-12-02T07:34:56.851Z,38.55
2023-12-02T07:37:24.628Z,38.97
2023-12-02T07:39:52.340Z,36.25
2023-12-02T07:42:20.002Z,36.53
2023-12-02T07:44:47.817Z,37.72
2023-12-02T07:47:15.601Z,36.88
2023-12-02T07:49:43.479Z,35.35
2023-12-02T07:52:11.232Z,35.17
2023-12-02T07:54:39.060Z,34.38
2023-12-02T07:57:07.106Z,35.60
2023-12-02T07:59:34.847Z,34.78
2023-12-02T08:02:02.716Z,31.88
2023-12-02T08:04:30.679Z,33.85
2023-12-02T08:06:58.571Z,32.58
2023-12-02T08:09:26.244Z,34.58
2023-12-02T08:11:53.901Z,35.08
2023-12-02T08:14:21.660Z,35.03
2023-12-02T08:16:49.913Z,33.25
2023-12-02T08:19:18.047Z,33.10
2023-12-02T08:21:45.863Z,33.50
2023-12-02T08:24:13.623Z,32.70
2023-12-02T08:26:41.444Z,34.05
2023-12-02T08:29:09.253Z,34.58
2023-12-02T08:31:37.007Z,34.33
2023-12-02T08:34:04.764Z,34.42
2023-12-02T08:36:43.245Z,36.17
2023-12-02T08:39:11.189Z,34.85
2023-12-02T08:41:39.006Z,33.50
2023-12-02T08:44:06.742Z,32.47
2023-12-02T08:46:34.514Z,34.08
2023-12-02T08:49:02.479Z,34.08
2023-12-02T08:51:30.406Z,35.88
2023-12-02T08:54:02.025Z,32.63
2023-12-02T08:56:30.214Z,33.60
2023-12-02T08:58:58.493Z,36.08
2023-12-02T09:01:27.258Z,35.13
2023-12-02T09:03:55.206Z,36.38
2023-12-02T09:06:23.784Z,36.10
2023-12-02T09:08:55.212Z,34.63
2023-12-02T09:11:23.116Z,34.67
2023-12-02T09:13:51.362Z,37.55
2023-12-02T09:16:19.045Z,36.10
2023-12-02T09:18:47.124Z,34.88
2023-12-02T09:21:46.056Z,36.97
2023-12-02T09:24:37.858Z,36.33
2023-12-02T09:27:09.020Z,35.70
2023-12-02T09:29:42.948Z,33.03
2023-12-02T09:32:46.617Z,34.38
2023-12-02T09:35:14.541Z,34.92
2023-12-02T09:37:59.446Z,36.53
2023-12-02T09:40:39.664Z,32.90
2023-12-02T09:43:45.878Z,35.28
2023-12-02T09:46:32.173Z,33.10
2023-12-02T09:49:32.527Z,34.00
2023-12-02T09:52:00.301Z,34.55
2023-12-02T09:54:53.417Z,30.85
2023-12-02T09:57:27.178Z,33.05
2023-12-02T10:00:14.178Z,34.45
2023-12-02T10:03:00.894Z,32.83
2023-12-02T10:05:39.397Z,30.55
2023-12-02T10:08:49.451Z,32.80
2023-12-02T10:11:45.249Z,34.28
2023-12-02T10:14:33.620Z,30.60
2023-12-02T10:17:04.193Z,36.30
2023-12-02T10:19:37.783Z,33.03
2023-12-02T10:22:08.193Z,36.90
2023-12-02T10:25:07.204Z,35.67
2023-12-02T10:27:40.364Z,38.20
2023-12-02T10:30:17.248Z,34.63
2023-12-02T10:33:09.674Z,33.50
2023-12-02T10:35:42.694Z,33.45
2023-12-02T10:38:28.151Z,34.22
2023-12-02T10:41:31.233Z,33.25
2023-12-02T10:44:05.115Z,34.03
2023-12-02T10:46:33.570Z,31.10
2023-12-02T10:49:02.689Z,33.65
2023-12-02T10:51:35.176Z,29.40
2023-12-02T10:54:06.330Z,31.92
2023-12-02T10:56:37.407Z,33.42
2023-12-02T10:59:05.683Z,28.15
2023-12-02T11:02:00.287Z,29.25
2023-12-02T11:07:11.440Z,28.88
2023-12-02T11:09:55.349Z,30.42
2023-12-02T11:13:05.389Z,31.15
2023-12-02T11:15:50.070Z,30.25
2023-12-02T11:18:31.546Z,30.42
2023-12-02T11:21:06.264Z,29.80
2023-12-02T11:23:58.994Z,31.73
2023-12-02T11:26:39.022Z,29.30
2023-12-02T11:29:41.277Z,30.13
2023-12-02T11:32:29.987Z,31.25
2023-12-02T11:35:20.317Z,35.60
2023-12-02T11:37:47.960Z,30.90
2023-12-02T11:40:23.685Z,35.50
2023-12-02T11:42:58.057Z,33.45
2023-12-02T11:45:40.032Z,35.42
2023-12-02T11:48:12.610Z,36.22
2023-12-02T11:50:49.448Z,32.88
2023-12-02T11:53:40.746Z,31.25
2023-12-02T11:56:13.221Z,31.38
2023-12-02T11:58:53.029Z,30.80
2023-12-02T12:01:36.584Z,30.15
2023-12-02T12:04:32.143Z,31.20
2023-12-02T12:07:21.839Z,31.50
2023-12-02T12:10:12.211Z,32.15
2023-12-02T12:12:43.811Z,31.17
2023-12-02T12:15:11.671Z,32.25
2023-12-02T12:17:39.824Z,33.40
2023-12-02T12:20:21.151Z,30.35
2023-12-02T12:22:49.419Z,27.85
2023-12-02T12:25:17.347Z,28.73
2023-12-02T12:27:45.700Z,29.98
2023-12-02T12:30:13.737Z,29.60
2023-12-02T12:32:41.684Z,30.17
2023-12-02T12:35:16.268Z,29.10
2023-12-02T12:37:45.981Z,28.00
2023-12-02T12:40:14.174Z,30.73
2023-12-02T12:42:51.631Z,28.27
2023-12-02T12:45:19.462Z,31.85
2023-12-02T12:47:47.381Z,29.48
2023-12-02T12:50:16.989Z,29.02
2023-12-02T12:52:51.616Z,32.05
2023-12-02T12:55:31.077Z,27.92
2023-12-02T12:58:01.592Z,28.15
2023-12-02T13:00:34.983Z,27.00
2023-12-02T13:03:02.774Z,29.33
2023-12-02T13:05:40.314Z,27.48
2023-12-02T13:08:30.512Z,26.75
2023-12-02T13:11:12.131Z,25.85
2023-12-02T13:13:53.430Z,27.48
2023-12-02T13:16:23.748Z,27.90
2023-12-02T13:18:55.145Z,29.88
2023-12-02T13:21:24.363Z,24.08
2023-12-02T13:23:55.150Z,25.42
2023-12-02T13:26:34.564Z,24.88
2023-12-02T13:29:05.672Z,20.95
2023-12-02T13:31:39.174Z,22.00
2023-12-02T13:34:22.314Z,19.33
2023-12-02T13:36:54.190Z,19.50
2023-12-02T13:39:28.771Z,18.27
2023-12-02T13:42:00.218Z,20.55
2023-12-02T13:44:31.763Z,19.17
2023-12-02T13:47:21.733Z,19.48
2023-12-02T13:49:59.314Z,20.65
2023-12-02T13:53:00.714Z,18.52
2023-12-02T13:55:56.046Z,18.05
2023-12-02T13:58:23.878Z,19.92
2023-12-02T14:01:10.251Z,16.92
2023-12-02T14:03:52.969Z,19.10
2023-12-02T14:06:25.358Z,20.02
2023-12-02T14:08:58.890Z,19.88
2023-12-02T14:11:51.323Z,20.02
2023-12-02T14:14:40.639Z,20.95
2023-12-02T14:17:38.754Z,21.30
2023-12-02T14:20:41.707Z,20.23
2023-12-02T14:23:21.302Z,18.63
2023-12-02T14:26:32.525Z,21.35
2023-12-02T14:29:18.407Z,22.95
2023-12-02T14:32:08.813Z,22.35
2023-12-02T14:35:01.799Z,20.73
2023-12-02T14:37:52.319Z,21.97
2023-12-02T14:40:29.018Z,19.02
2023-12-02T14:43:05.842Z,20.15
2023-12-02T14:45:37.908Z,19.42
2023-12-02T14:48:13.180Z,18.80
2023-12-02T14:50:45.686Z,18.30
2023-12-02T14:53:15.297Z,15.55
2023-12-02T14:55:43.453Z,17.58
2023-12-02T14:58:29.826Z,17.90
2023-12-02T15:01:04.680Z,17.08
2023-12-02T15:03:36.310Z,19.05
2023-12-02T15:06:06.628Z,18.13
2023-12-02T15:08:41.942Z,18.42
2023-12-02T15:11:10.984Z,20.27
2023-12-02T15:13:39.043Z,21.08
2023-12-02T15:16:08.003Z,22.50
2023-12-02T15:18:37.134Z,22.75
2023-12-02T15:21:14.668Z,21.65
2023-12-02T15:23:43.852Z,20.27
2023-12-02T15:26:20.796Z,20.08
2023-12-02T15:28:54.376Z,19.10
2023-12-02T15:31:22.153Z,20.27
2023-12-02T15:33:52.273Z,22.58
2023-12-02T15:36:21.016Z,22.35
2023-12-02T15:38:51.152Z,23.35
2023-12-02T15:41:19.728Z,22.70
2023-12-02T15:43:55.050Z,22.48
2023-12-02T15:46:23.318Z,20.63
2023-12-02T15:48:53.767Z,21.40
2023-12-02T15:51:21.787Z,21.67
2023-12-02T15:53:52.595Z,24.50
2023-12-02T15:56:22.574Z,21.67
2023-12-02T15:58:51.811Z,23.58
2023-12-02T16:01:21.143Z,21.50
2023-12-02T16:03:50.168Z,19.88
2023-12-02T16:06:26.476Z,14.90
2023-12-02T16:08:55.009Z,18.30
2023-12-02T16:11:23.792Z,17.42
2023-12-02T16:13:52.888Z,17.75
2023-12-02T16:16:21.620Z,19.77
2023-12-02T16:21:20.211Z,17.38
2023-12-02T16:23:49.333Z,16.48
2023-12-02T16:26:18.257Z,17.20
2023-12-02T16:28:46.946Z,15.93
2023-12-02T16:31:14.709Z,15.27
2023-12-02T16:33:43.079Z,13.60
2023-12-02T16:36:14.595Z,13.75
2023-12-02T16:38:42.635Z,15.55
2023-12-02T16:41:10.461Z,15.15
2023-12-02T16:43:38.476Z,15.52
2023-12-02T16:46:08.187Z,14.57
2023-12-02T16:48:37.571Z,13.57
2023-12-02T16:51:07.787Z,14.60
2023-12-02T16:53:36.345Z,12.65
2023-12-02T16:56:14.619Z,13.35
2023-12-02T16:58:49.019Z,12.10
2023-12-02T17:01:27.160Z,11.48
2023-12-02T17:03:55.780Z,11.00
2023-12-02T17:06:24.134Z,11.35
2023-12-02T17:08:58.214Z,12.45
2023-12-02T17:14:01.332Z,11.85
2023-12-02T17:16:36.004Z,12.45
2023-12-02T17:21:56.771Z,10.98
2023-12-02T17:24:28.845Z,11.52
2023-12-02T17:26:57.533Z,13.40
2023-12-02T17:29:30.188Z,13.85
2023-12-02T17:31:59.658Z,11.73
2023-12-02T17:34:29.598Z,11.43
2023-12-02T17:36:58.217Z,11.10
2023-12-02T17:39:26.251Z,13.50
2023-12-02T17:41:54.353Z,20.27
2023-12-02T17:44:22.098Z,19.80
2023-12-02T17:46:50.991Z,16.40
2023-12-02T17:49:20.547Z,18.02
2023-12-02T17:51:48.444Z,20.38
2023-12-02T17:54:16.333Z,22.75
2023-12-02T17:56:44.188Z,20.98
2023-12-02T17:59:12.610Z,20.35
2023-12-02T18:01:40.491Z,18.95
2023-12-02T18:04:08.257Z,15.43
2023-12-02T18:06:36.395Z,14.70
2023-12-02T18:09:04.300Z,15.90
2023-12-02T18:11:32.236Z,13.90
2023-12-02T18:14:00.016Z,14.18
2023-12-02T18:16:27.722Z,15.00
2023-12-02T18:18:57.522Z,15.32
2023-12-02T18:21:25.647Z,14.50
2023-12-02T18:23:58.852Z,15.98
2023-12-02T18:26:26.831Z,16.00
2023-12-02T18:28:54.474Z,16.77
2023-12-02T18:31:22.641Z,17.15
2023-12-02T18:33:50.504Z,16.25
2023-12-02T18:36:18.355Z,16.13
2023-12-02T18:38:46.125Z,17.40
2023-12-02T18:41:13.868Z,16.60
2023-12-02T18:43:41.534Z,16.40
2023-12-02T18:46:10.308Z,18.48
2023-12-02T18:48:38.230Z,18.33
2023-12-02T18:51:06.318Z,15.77
2023-12-02T18:53:34.098Z,16.67
2023-12-02T18:56:01.871Z,18.17
2023-12-02T18:58:32.416Z,18.70
2023-12-02T19:01:00.264Z,17.20
2023-12-02T19:03:28.183Z,18.98
2023-12-02T19:05:56.577Z,17.42
2023-12-02T19:08:24.417Z,19.13
2023-12-02T19:10:52.300Z,18.10
2023-12-02T19:13:20.066Z,18.60
2023-12-02T19:15:47.828Z,20.75
2023-12-02T19:18:15.788Z,22.25
2023-12-02T19:20:43.679Z,20.80
2023-12-02T19:23:11.633Z,22.27
2023-12-02T19:25:39.758Z,22.55
2023-12-02T19:28:07.679Z,21.95
2023-12-02T19:30:35.425Z,21.70
2023-12-02T19:33:03.576Z,23.80
2023-12-02T19:35:31.627Z,23.58
2023-12-02T19:38:03.117Z,21.00
2023-12-02T19:40:31.036Z,22.08
2023-12-02T19:43:02.067Z,19.75
2023-12-02T19:45:30.267Z,21.35
2023-12-02T19:47:58.147Z,20.50
2023-12-02T19:50:25.957Z,21.55
2023-12-02T19:52:53.849Z,23.27
2023-12-02T19:55:21.524Z,24.98
2023-12-02T19:57:49.385Z,27.73
2023-12-02T20:00:17.992Z,24.10
2023-12-02T20:02:45.786Z,23.65
2023-12-02T20:05:14.767Z,24.30
2023-12-02T20:07:42.675Z,27.48
2023-12-02T20:10:11.553Z,24.70
2023-12-02T20:12:39.392Z,29.98
2023-12-02T20:15:07.758Z,30.60
2023-12-02T20:17:35.610Z,27.73
2023-12-02T20:20:04.116Z,24.80
2023-12-02T20:22:31.906Z,21.20
2023-12-02T20:24:59.668Z,20.60
2023-12-02T20:27:27.564Z,20.52
2023-12-02T20:29:55.315Z,18.70
2023-12-02T20:32:23.072Z,18.73
2023-12-02T20:34:51.513Z,18.65
2023-12-02T20:37:20.372Z,20.80
2023-12-02T20:39:48.249Z,20.15
2023-12-02T20:42:16.117Z,21.63
2023-12-02T20:44:43.862Z,21.90
2023-12-02T20:47:11.728Z,21.55
2023-12-02T20:49:39.624Z,18.77
2023-12-02T20:52:08.009Z,20.25
2023-12-02T20:54:35.830Z,18.83
2023-12-02T20:57:03.879Z,19.60
2023-12-02T20:59:32.700Z,19.50
2023-12-02T21:02:00.653Z,22.13
2023-12-02T21:04:28.621Z,21.05
2023-12-02T21:06:56.377Z,21.52
2023-12-02T21:09:24.193Z,23.00
2023-12-02T21:11:51.960Z,22.60
2023-12-02T21:14:19.794Z,21.85
2023-12-02T21:16:47.572Z,22.98
2023-12-02T21:19:18.380Z,23.05
2023-12-02T21:21:47.696Z,24.98
2023-12-02T21:24:15.931Z,26.98
2023-12-02T21:26:47.019Z,27.52
2023-12-02T21:29:14.861Z,24.25
2023-12-02T21:31:42.814Z,32.00
2023-12-02T21:34:12.289Z,30.35
2023-12-02T21:36:40.248Z,31.70
2023-12-02T21:39:14.414Z,29.25
2023-12-02T21:44:10.184Z,27.77
2023-12-02T21:46:37.852Z,26.30
2023-12-02T21:49:12.378Z,25.98
2023-12-02T21:51:45.488Z,26.08
2023-12-02T21:54:19.821Z,25.90
2023-12-02T21:56:50.275Z,26.52
2023-12-02T21:59:19.689Z,27.75
2023-12-02T22:01:50.489Z,28.13
2023-12-02T22:04:23.076Z,30.08
2023-12-02T22:07:04.476Z,29.92
2023-12-02T22:09:38.564Z,31.63
2023-12-02T22:12:09.323Z,31.98
2023-12-02T22:14:37.245Z,30.48
2023-12-02T22:17:08.837Z,28.17
2023-12-02T22:19:37.198Z,31.05
2023-12-02T22:22:39.642Z,34.15
2023-12-02T22:25:07.490Z,33.50
2023-12-02T22:27:38.257Z,31.73
2023-12-02T22:30:24.618Z,35.83
2023-12-02T22:33:00.688Z,36.25
2023-12-02T22:35:45.958Z,36.60
2023-12-02T22:38:37.471Z,32.88
2023-12-02T22:41:07.700Z,32.35
2023-12-02T22:43:48.058Z,33.40
2023-12-02T22:46:20.748Z,33.40
2023-12-02T22:48:51.917Z,34.65
2023-12-02T22:51:25.750Z,32.60
2023-12-02T22:53:55.706Z,35.80
2023-12-02T22:56:24.496Z,33.08
2023-12-02T22:58:53.049Z,34.13
2023-12-02T23:01:30.539Z,33.80
2023-12-02T23:03:59.278Z,34.63
2023-12-02T23:06:30.440Z,33.70
2023-12-02T23:09:00.512Z,35.92
2023-12-02T23:11:53.090Z,33.38
2023-12-02T23:14:40.975Z,35.83
2023-12-02T23:17:14.516Z,38.38
2023-12-02T23:19:42.447Z,39.72
2023-12-02T23:22:10.290Z,42.08
2023-12-02T23:24:39.337Z,40.35
2023-12-02T23:27:14.328Z,37.65
2023-12-02T23:29:42.137Z,38.05
2023-12-02T23:32:10.008Z,38.47
2023-12-02T23:34:37.859Z,39.22
2023-12-02T23:37:05.746Z,43.25
2023-12-02T23:39:33.558Z,39.15
2023-12-02T23:42:03.645Z,45.97
2023-12-02T23:44:44.682Z,39.55
2023-12-02T23:47:19.903Z,44.72
2023-12-02T23:49:47.718Z,39.90
2023-12-02T23:52:15.612Z,38.38
2023-12-02T23:54:43.562Z,38.03
2023-12-02T23:57:11.879Z,40.65
2023-12-02T23:59:39.977Z,41.08
